Time;durP1;ratioP1;P1;durP2;ratioP2;P2;SDS_P1;SDS_P2;PMS_P1;PMS_P2;Temp;Humidity;BMP_temperature;BMP_pressure;BME280_temperature;BME280_humidity;BME280_pressure;Samples;Min_cycle;Max_cycle;Signal;HPM_P1;HPM_P2
2022/06/02 00:00:11;;;;;;;7.57;5.40;;;;;;;9.17;93.06;101871.69;5073986;28;20028;-75
2022/06/02 00:03:02;;;;;;;7.85;5.03;;;;;;;9.13;93.65;101873.69;5073641;28;20024;-75
2022/06/02 00:05:50;;;;;;;8.77;5.40;;;;;;;9.00;93.59;101857.97;5073013;28;20032;-75
2022/06/02 00:08:44;;;;;;;9.18;5.13;;;;;;;8.98;94.34;101867.78;5074917;28;20293;-74
2022/06/02 00:11:20;;;;;;;7.78;5.63;;;;;;;8.82;94.69;101860.19;5075482;28;20024;-74
2022/06/02 00:14:09;;;;;;;6.97;4.60;;;;;;;8.80;95.08;101877.88;5075224;28;20024;-75
2022/06/02 00:16:53;;;;;;;6.30;5.22;;;;;;;8.71;95.44;101867.19;5090539;28;20502;-75
2022/06/02 00:19:32;;;;;;;9.45;5.38;;;;;;;8.80;95.72;101879.69;5072191;28;20111;-75
2022/06/02 00:22:11;;;;;;;7.13;4.97;;;;;;;8.81;95.57;101874.28;5074765;28;20028;-75
2022/06/02 00:25:00;;;;;;;7.05;4.97;;;;;;;8.75;95.13;101873.91;5074595;28;20051;-75
2022/06/02 00:27:52;;;;;;;6.70;4.68;;;;;;;8.73;94.77;101867.91;5074995;28;20564;-76
2022/06/02 00:30:25;;;;;;;8.90;5.05;;;;;;;8.64;95.38;101877.31;5045364;28;20389;-75
2022/06/02 00:33:00;;;;;;;8.05;5.15;;;;;;;8.53;95.72;101875.47;5075912;28;20035;-75
2022/06/02 00:35:40;;;;;;;7.10;4.97;;;;;;;8.53;96.13;101880.72;5074077;28;20051;-75
2022/06/02 00:38:18;;;;;;;6.25;4.82;;;;;;;8.56;96.21;101891.03;5072423;28;20020;-75
2022/06/02 00:40:44;;;;;;;8.98;4.72;;;;;;;8.58;95.55;101889.16;5073263;28;20028;-75
2022/06/02 00:43:28;;;;;;;6.13;4.32;;;;;;;8.59;95.43;101884.72;5075069;28;20021;-75
2022/06/02 00:46:13;;;;;;;6.72;4.82;;;;;;;8.50;94.87;101875.69;5067800;28;20059;-75
2022/06/02 00:49:14;;;;;;;5.97;4.18;;;;;;;8.57;94.25;101892.72;5088343;28;20047;-75
2022/06/02 00:52:10;;;;;;;6.80;4.97;;;;;;;8.49;93.97;101884.53;5011701;28;20185;-76
2022/06/02 00:58:00;;;;;;;7.10;4.57;;;;;;;8.52;94.28;101894.84;5013179;28;20036;-75
2022/06/02 01:00:50;;;;;;;6.82;4.30;;;;;;;8.50;94.73;101891.47;5012235;28;20521;-75
2022/06/02 01:03:21;;;;;;;5.88;4.50;;;;;;;8.44;94.37;101892.75;5002368;28;20041;-77
2022/06/02 01:06:24;;;;;;;8.65;5.35;;;;;;;8.44;94.77;101891.91;5008832;28;20046;-76
2022/06/02 01:08:55;;;;;;;6.35;5.10;;;;;;;8.38;95.43;101897.59;5008180;28;20029;-76
2022/06/02 01:11:47;;;;;;;6.60;4.63;;;;;;;8.39;95.77;101899.28;5008181;28;20034;-76
2022/06/02 01:14:31;;;;;;;7.60;4.70;;;;;;;8.41;95.55;101897.41;5009459;28;20060;-76
2022/06/02 01:17:15;;;;;;;9.60;5.55;;;;;;;8.41;95.09;101898.25;5013906;28;20030;-76
2022/06/02 01:20:15;;;;;;;6.57;4.53;;;;;;;8.38;95.69;101908.09;4995836;28;20565;-76
2022/06/02 01:23:00;;;;;;;8.50;4.97;;;;;;;8.34;95.49;101904.00;5010410;28;20038;-76
2022/06/02 01:25:38;;;;;;;5.90;4.65;;;;;;;8.32;95.64;101908.53;5031373;28;20036;-76
2022/06/02 01:28:23;;;;;;;7.25;4.97;;;;;;;8.30;95.39;101911.31;5071096;28;20056;-76
2022/06/02 01:31:25;;;;;;;5.63;4.25;;;;;;;8.29;95.72;101904.34;5072277;28;20048;-76
2022/06/02 01:34:01;;;;;;;19.23;5.00;;;;;;;8.27;95.87;101900.97;5070504;28;20021;-76
2022/06/02 01:36:55;;;;;;;6.22;4.38;;;;;;;8.22;95.70;101905.75;5069248;28;20074;-76
2022/06/02 01:39:37;;;;;;;7.40;4.85;;;;;;;8.08;96.60;101885.69;5062845;28;20115;-77
2022/06/02 01:42:41;;;;;;;6.05;4.53;;;;;;;8.05;96.31;101888.50;5086073;28;20384;-76
2022/06/02 01:45:25;;;;;;;8.07;5.03;;;;;;;8.14;96.71;101905.44;5067740;28;20025;-76
2022/06/02 01:48:29;;;;;;;6.80;4.50;;;;;;;8.00;96.78;101883.59;5062140;28;20095;-76
2022/06/02 01:51:29;;;;;;;5.63;4.43;;;;;;;8.12;96.96;101902.94;5030514;28;20044;-76
2022/06/02 01:54:10;;;;;;;8.87;5.07;;;;;;;7.97;96.81;101893.47;5041178;28;20040;-76
2022/06/02 01:56:57;;;;;;;7.50;5.00;;;;;;;8.03;96.92;101909.69;5047049;28;20044;-76
2022/06/02 01:59:38;;;;;;;7.53;5.07;;;;;;;7.81;97.58;101884.03;5051590;28;20032;-76
2022/06/02 02:02:14;;;;;;;7.22;4.85;;;;;;;7.75;97.82;101897.59;5031666;28;20108;-76
2022/06/02 02:05:13;;;;;;;8.10;5.00;;;;;;;7.66;98.59;101921.03;5051833;28;20056;-76
2022/06/02 02:07:54;;;;;;;7.13;5.30;;;;;;;7.50;99.95;101915.97;5032147;28;20020;-76
2022/06/02 02:10:28;;;;;;;8.57;6.20;;;;;;;7.36;100.00;101901.13;5048685;28;20075;-76
2022/06/02 02:12:59;;;;;;;7.20;5.78;;;;;;;7.50;100.00;101916.81;5051274;28;20033;-75
2022/06/02 02:15:55;;;;;;;8.27;6.45;;;;;;;7.46;100.00;101912.72;5022411;28;20036;-75
2022/06/02 02:18:20;;;;;;;8.70;5.65;;;;;;;7.55;100.00;101919.13;5023969;28;20550;-75
2022/06/02 02:21:23;;;;;;;7.82;5.95;;;;;;;7.55;100.00;101912.09;5051062;28;20113;-75
2022/06/02 02:24:04;;;;;;;11.95;6.15;;;;;;;7.57;99.92;101912.00;5050546;28;20021;-75
2022/06/02 02:26:36;;;;;;;9.85;7.05;;;;;;;7.53;99.43;101916.59;5034061;28;20064;-75
2022/06/02 02:29:11;;;;;;;9.55;6.45;;;;;;;7.52;99.72;101908.84;5050940;28;20427;-75
2022/06/02 02:31:51;;;;;;;8.63;6.15;;;;;;;7.50;99.64;101910.72;5033018;28;20486;-75
2022/06/02 02:34:28;;;;;;;11.23;6.78;;;;;;;7.43;100.00;101919.97;5030175;28;20071;-76
2022/06/02 02:37:39;;;;;;;8.77;6.57;;;;;;;7.40;100.00;101916.63;5048322;28;20028;-76
2022/06/02 02:40:14;;;;;;;9.50;6.75;;;;;;;7.34;99.90;101906.50;4988219;28;20034;-76
2022/06/02 02:42:51;;;;;;;8.82;6.78;;;;;;;7.31;100.00;101911.94;4986375;28;20038;-75
2022/06/02 02:45:33;;;;;;;9.10;6.90;;;;;;;7.19;100.00;101907.53;4989193;28;20065;-75
2022/06/02 02:48:21;;;;;;;11.73;7.15;;;;;;;7.17;100.00;101905.00;5006603;28;20065;-75
2022/06/02 02:51:05;;;;;;;10.73;6.32;;;;;;;7.21;100.00;101906.50;5026953;28;20041;-76
2022/06/02 02:53:42;;;;;;;8.30;6.45;;;;;;;7.17;100.00;101896.28;5023648;28;20040;-76
2022/06/02 02:56:22;;;;;;;8.43;6.10;;;;;;;7.26;100.00;101907.97;5027089;28;20025;-76
2022/06/02 02:58:58;;;;;;;9.13;6.20;;;;;;;7.21;100.00;101893.34;5024029;28;20374;-76
2022/06/02 03:01:32;;;;;;;10.43;6.15;;;;;;;7.28;100.00;101906.91;5026802;28;20091;-75
2022/06/02 03:04:16;;;;;;;11.63;6.07;;;;;;;7.27;100.00;101910.47;5026977;28;20045;-75
2022/06/02 03:06:42;;;;;;;8.13;6.00;;;;;;;7.21;100.00;101887.28;5023423;28;20434;-75
2022/06/02 03:09:29;;;;;;;7.13;5.80;;;;;;;7.36;100.00;101909.88;5026858;28;20030;-76
2022/06/02 03:12:24;;;;;;;6.32;4.72;;;;;;;7.38;100.00;101910.63;5009470;28;20041;-76
2022/06/02 03:15:18;;;;;;;6.47;4.68;;;;;;;7.39;99.55;101907.03;5026480;28;20060;-76
2022/06/02 03:17:50;;;;;;;9.68;5.15;;;;;;;7.38;99.56;101905.38;5060688;28;20044;-75
2022/06/02 03:20:48;;;;;;;8.77;5.63;;;;;;;7.38;99.59;101921.13;5067960;28;20032;-76
2022/06/02 03:23:35;;;;;;;7.18;5.10;;;;;;;7.39;98.89;101917.53;5033914;28;20546;-75
2022/06/02 03:26:30;;;;;;;6.72;5.25;;;;;;;7.39;99.36;101919.34;5069710;28;20071;-75
2022/06/02 03:29:11;;;;;;;6.72;5.13;;;;;;;7.40;99.08;101924.50;5069050;28;20013;-75
2022/06/02 03:31:57;;;;;;;9.38;5.78;;;;;;;7.41;98.94;101931.41;5069405;28;20503;-75
2022/06/02 03:34:45;;;;;;;7.72;5.68;;;;;;;7.40;99.55;101927.13;5068885;28;20085;-75
2022/06/02 03:37:32;;;;;;;6.90;5.47;;;;;;;7.41;99.63;101933.19;5068546;28;20408;-75
2022/06/02 03:40:07;;;;;;;7.80;4.70;;;;;;;7.42;100.00;101924.38;5068528;28;20036;-75
2022/06/02 03:43:10;;;;;;;7.18;5.03;;;;;;;7.44;99.85;101938.25;5067923;28;20721;-75
2022/06/02 03:45:52;;;;;;;5.40;4.68;;;;;;;7.51;100.00;101938.66;5066563;28;20456;-75
2022/06/02 03:48:29;;;;;;;6.53;4.75;;;;;;;7.60;100.00;101949.41;5084401;28;20048;-75
2022/06/02 03:51:22;;;;;;;5.90;5.03;;;;;;;7.65;99.78;101945.63;5066006;28;20032;-75
2022/06/02 03:54:30;;;;;;;7.70;4.88;;;;;;;7.74;99.98;101950.25;5067539;28;20068;-75
2022/06/02 03:57:15;;;;;;;9.20;4.97;;;;;;;7.85;99.42;101947.75;5069007;28;20055;-75
2022/06/02 03:59:43;;;;;;;7.25;4.30;;;;;;;7.94;99.07;101956.78;5065739;28;20028;-75
2022/06/02 04:02:13;;;;;;;5.97;4.15;;;;;;;8.02;98.61;101947.41;5069286;28;20024;-75
2022/06/02 04:05:26;;;;;;;7.43;5.03;;;;;;;8.11;98.15;101950.34;5068311;28;20387;-75
2022/06/02 04:08:02;;;;;;;5.60;4.22;;;;;;;8.26;97.71;101956.34;5045982;28;20505;-75
2022/06/02 04:10:58;;;;;;;6.03;4.68;;;;;;;8.32;97.55;101956.75;5045844;28;20127;-75
2022/06/02 04:13:45;;;;;;;6.15;3.90;;;;;;;8.45;96.51;101959.38;5042774;28;20056;-76
2022/06/02 04:16:13;;;;;;;7.88;4.68;;;;;;;8.54;95.89;101971.88;5028491;28;20024;-76
2022/06/02 04:18:56;;;;;;;5.57;4.40;;;;;;;8.64;94.89;101962.38;5045572;28;20043;-75
2022/06/02 04:21:39;;;;;;;4.78;4.07;;;;;;;8.72;93.88;101968.88;5029174;28;20142;-75
2022/06/02 04:24:21;;;;;;;4.95;3.92;;;;;;;8.88;94.13;101964.19;5046155;28;20024;-75
2022/06/02 04:27:23;;;;;;;5.40;3.75;;;;;;;8.96;93.64;101982.91;5044741;28;20649;-75
2022/06/02 04:30:00;;;;;;;4.82;3.63;;;;;;;9.02;92.84;101977.19;5044781;28;20032;-75
2022/06/02 04:32:43;;;;;;;6.00;3.45;;;;;;;9.15;92.62;101981.56;5045501;28;20041;-75
2022/06/02 04:35:35;;;;;;;5.07;3.30;;;;;;;9.19;91.43;101977.72;5043456;28;20024;-75
2022/06/02 04:38:31;;;;;;;4.38;3.70;;;;;;;9.27;92.64;101988.53;5051442;28;20040;-75
2022/06/02 04:41:15;;;;;;;5.78;3.60;;;;;;;9.26;92.22;101982.44;5060723;28;20506;-76
2022/06/02 04:44:32;;;;;;;6.15;3.40;;;;;;;9.26;92.33;101987.72;5065892;28;20013;-75
2022/06/02 04:47:27;;;;;;;6.35;3.58;;;;;;;9.26;91.74;101989.50;4991679;28;20049;-75
2022/06/02 04:50:13;;;;;;;4.10;3.25;;;;;;;9.29;92.02;101991.91;5008000;28;20432;-75
2022/06/02 04:52:50;;;;;;;7.10;3.90;;;;;;;9.43;91.70;101991.72;5008773;28;20029;-75
2022/06/02 04:55:41;;;;;;;6.43;3.55;;;;;;;9.63;91.92;101992.03;5008411;28;20029;-75
2022/06/02 04:58:21;;;;;;;4.43;3.08;;;;;;;9.68;91.73;101984.63;5006263;28;20064;-76
2022/06/02 05:01:14;;;;;;;4.45;3.00;;;;;;;9.94;92.00;101997.63;5008563;28;20648;-75
2022/06/02 05:03:51;;;;;;;5.22;2.60;;;;;;;10.06;90.94;102004.56;5008477;28;20048;-75
2022/06/02 05:06:41;;;;;;;6.03;3.00;;;;;;;10.18;91.16;102002.78;5007927;28;20037;-75
2022/06/02 05:09:31;;;;;;;5.68;3.20;;;;;;;10.33;90.83;102004.25;4999990;28;20417;-75
2022/06/02 05:12:27;;;;;;;4.72;3.45;;;;;;;10.41;89.89;102003.66;5005397;28;20038;-75
2022/06/02 05:15:31;;;;;;;5.22;2.95;;;;;;;10.45;90.07;101997.16;5005495;28;20072;-75
2022/06/02 05:18:24;;;;;;;6.22;3.55;;;;;;;10.68;90.19;102004.13;5004468;28;20121;-76
2022/06/02 05:20:49;;;;;;;5.13;3.22;;;;;;;10.80;89.02;102017.28;5004158;28;20270;-75
2022/06/02 05:23:30;;;;;;;7.07;2.80;;;;;;;10.94;89.22;102014.41;5058493;28;20445;-80
2022/06/02 05:26:14;;;;;;;5.25;2.60;;;;;;;11.09;88.25;102015.78;5065365;28;20047;-81
2022/06/02 05:29:19;;;;;;;3.30;2.60;;;;;;;11.31;88.74;102021.97;5066037;28;20338;-80
2022/06/02 05:32:03;;;;;;;4.00;2.70;;;;;;;11.61;88.75;102026.53;5065135;28;20028;-80
2022/06/02 05:34:47;;;;;;;4.53;2.70;;;;;;;11.78;87.42;102024.25;5066336;28;20165;-81
2022/06/02 05:37:12;;;;;;;3.08;2.33;;;;;;;11.93;87.15;102030.94;5065889;28;20479;-81
2022/06/02 05:40:15;;;;;;;6.18;2.78;;;;;;;12.18;85.99;102032.34;5065217;28;20028;-81
2022/06/02 05:42:57;;;;;;;7.03;2.65;;;;;;;12.33;83.76;102025.72;5066371;28;20453;-81
2022/06/02 05:45:41;;;;;;;;;;;;;;;12.53;84.16;102039.06;5065822;28;20029;-81
2022/06/02 05:48:25;;;;;;;2.33;2.13;;;;;;;12.58;83.81;102049.25;5065461;28;19924;-81
2022/06/02 05:50:59;;;;;;;7.30;2.47;;;;;;;12.61;83.89;102044.53;5064779;28;20472;-81
2022/06/02 05:53:44;;;;;;;4.15;2.45;;;;;;;12.65;83.57;102048.59;5066184;28;20028;-81
2022/06/02 05:56:39;;;;;;;2.60;2.00;;;;;;;12.71;83.30;102048.03;5079018;28;20029;-80
2022/06/02 05:59:18;;;;;;;3.28;2.10;;;;;;;12.91;83.21;102053.38;5081183;28;20040;-80
2022/06/02 06:01:47;;;;;;;2.88;2.05;;;;;;;12.95;83.49;102054.78;5069322;28;20028;-80
2022/06/02 06:04:28;;;;;;;4.20;1.92;;;;;;;12.91;83.32;102032.19;5066696;28;20029;-82
2022/06/02 06:07:09;;;;;;;6.50;2.20;;;;;;;13.15;83.01;102045.91;5068507;28;20421;-80
2022/06/02 06:09:58;;;;;;;3.05;2.20;;;;;;;13.40;82.50;102064.94;5067307;28;20050;-80
2022/06/02 06:12:48;;;;;;;4.97;2.15;;;;;;;13.54;82.57;102061.88;5064192;28;20032;-80
2022/06/02 06:15:47;;;;;;;5.72;2.22;;;;;;;13.71;82.49;102059.47;5065836;28;20084;-80
2022/06/02 06:18:43;;;;;;;4.00;2.28;;;;;;;13.97;82.05;102071.19;5060480;28;20059;-80
2022/06/02 06:21:47;;;;;;;4.45;1.60;;;;;;;14.06;79.48;102066.00;5070180;28;20029;-80
2022/06/02 06:24:30;;;;;;;4.05;1.55;;;;;;;14.14;78.75;102047.53;5052073;28;20484;-79
2022/06/02 06:27:12;;;;;;;3.85;1.25;;;;;;;14.63;77.67;102053.53;5069598;28;20381;-79
2022/06/02 06:29:52;;;;;;;3.90;1.45;;;;;;;15.24;76.33;102065.34;5053694;28;20055;-80
2022/06/02 06:32:38;;;;;;;2.08;1.30;;;;;;;15.75;75.71;102068.34;5068303;28;20442;-80
2022/06/02 06:35:22;;;;;;;3.00;1.45;;;;;;;15.78;73.44;102068.84;5068926;28;20024;-80
2022/06/02 06:38:06;;;;;;;4.20;1.20;;;;;;;15.66;73.62;102067.41;5067985;28;20028;-81
2022/06/02 06:41:12;;;;;;;3.20;1.83;;;;;;;15.43;74.97;102080.31;5070390;28;20055;-80
2022/06/02 06:43:47;;;;;;;5.97;1.90;;;;;;;15.22;74.85;102073.50;5006904;28;20611;-80
2022/06/02 06:46:39;;;;;;;1.92;1.20;;;;;;;15.37;73.95;102078.28;4990145;28;20121;-79
2022/06/02 06:49:12;;;;;;;3.65;1.10;;;;;;;15.42;72.92;102082.16;5007204;28;20042;-80
2022/06/02 06:52:11;;;;;;;2.22;1.20;;;;;;;15.98;72.10;102081.97;5006664;28;20086;-80
2022/06/02 06:55:08;;;;;;;2.00;0.73;;;;;;;16.32;70.21;102082.03;5007517;28;20042;-80
2022/06/02 06:57:56;;;;;;;2.63;1.08;;;;;;;16.49;68.96;102090.13;5005992;28;20395;-80
2022/06/02 07:00:35;;;;;;;3.70;1.02;;;;;;;16.25;69.43;102068.50;5008265;28;20045;-81
2022/06/02 07:03:19;;;;;;;3.67;1.15;;;;;;;16.20;69.14;102093.94;5006077;28;20038;-80
2022/06/02 07:05:50;;;;;;;4.72;1.00;;;;;;;16.10;69.68;102094.06;4987881;28;20041;-80
2022/06/02 07:08:35;;;;;;;3.65;0.90;;;;;;;16.16;69.62;102095.28;5002795;28;20089;-81
2022/06/02 07:11:05;;;;;;;4.45;0.80;;;;;;;16.79;68.60;102097.59;4989304;28;20040;-80
2022/06/02 07:13:47;;;;;;;3.55;0.70;;;;;;;17.18;67.48;102097.09;5005826;28;20033;-80
2022/06/02 07:16:35;;;;;;;3.03;0.95;;;;;;;16.84;68.01;102076.66;5004211;28;20321;-80
2022/06/02 07:19:16;;;;;;;2.35;0.93;;;;;;;16.83;68.02;102098.13;5028843;28;20534;-80
2022/06/02 07:22:01;;;;;;;2.38;1.00;;;;;;;16.60;67.57;102084.53;5057110;28;20388;-80
2022/06/02 07:24:41;;;;;;;1.60;1.20;;;;;;;16.64;66.80;102110.69;5066374;28;20503;-79
2022/06/02 07:27:16;;;;;;;4.50;1.10;;;;;;;17.35;67.38;102102.47;5063463;28;20024;-79
2022/06/02 07:29:51;;;;;;;1.27;0.98;;;;;;;17.68;66.51;102124.69;5068629;28;20614;-80
2022/06/02 07:32:52;;;;;;;4.30;1.25;;;;;;;17.88;65.44;102118.06;5067530;28;20036;-80
2022/06/02 07:35:56;;;;;;;1.73;1.00;;;;;;;18.53;63.89;102118.13;5052984;28;20319;-81
2022/06/02 07:38:59;;;;;;;2.65;1.20;;;;;;;18.57;62.23;102130.97;5068216;28;20029;-80
2022/06/02 07:41:56;;;;;;;2.58;0.88;;;;;;;18.02;63.31;102129.06;5067252;28;20062;-81
2022/06/02 07:44:59;;;;;;;8.27;1.23;;;;;;;17.87;65.03;102136.91;5035037;28;20044;-80
2022/06/02 07:47:43;;;;;;;1.70;1.00;;;;;;;17.80;66.47;102138.56;5066504;28;20060;-79
2022/06/02 07:50:24;;;;;;;1.70;0.90;;;;;;;17.89;64.51;102124.22;5058579;28;20028;-79
2022/06/02 07:53:04;;;;;;;2.65;0.85;;;;;;;17.96;65.18;102135.06;5065459;28;20105;-79
2022/06/02 07:55:35;;;;;;;1.50;0.80;;;;;;;17.77;64.51;102139.72;5066197;28;20023;-79
2022/06/02 07:58:07;;;;;;;;;;;;;;;17.82;65.29;102144.59;5057457;28;20075;-79
2022/06/02 08:00:58;;;;;;;2.85;1.02;;;;;;;18.60;62.56;102152.03;5065701;28;20386;-79
2022/06/02 08:03:36;;;;;;;2.20;1.02;;;;;;;19.05;63.41;102137.19;5065867;28;20055;-79
2022/06/02 08:06:26;;;;;;;1.58;0.80;;;;;;;19.81;59.23;102149.94;5058863;28;20545;-79
2022/06/02 08:09:19;;;;;;;1.40;0.70;;;;;;;19.30;59.64;102148.59;5064111;28;20033;-80
2022/06/02 08:11:52;;;;;;;3.67;0.82;;;;;;;18.98;60.41;102146.91;5069782;28;20051;-80
2022/06/02 08:14:59;;;;;;;1.92;1.00;;;;;;;19.00;61.50;102152.09;5071410;28;20138;-80
2022/06/02 08:17:39;;;;;;;2.05;0.80;;;;;;;18.91;61.43;102153.97;5009065;28;20049;-80
2022/06/02 08:20:20;;;;;;;3.80;1.27;;;;;;;18.53;63.38;102166.22;5010073;28;20038;-80
2022/06/02 08:23:07;;;;;;;1.35;0.90;;;;;;;17.98;63.55;102165.94;4998967;28;20029;-80
2022/06/02 08:25:50;;;;;;;1.73;0.70;;;;;;;17.71;64.25;102145.72;5009132;28;20034;-80
2022/06/02 08:28:51;;;;;;;2.60;0.70;;;;;;;17.99;64.26;102174.81;4992882;28;20046;-79
2022/06/02 08:31:54;;;;;;;3.40;0.80;;;;;;;18.02;63.60;102164.63;4991139;28;20038;-80
2022/06/02 08:34:47;;;;;;;4.70;0.85;;;;;;;18.13;63.59;102175.97;4993414;28;20101;-82
2022/06/02 08:37:16;;;;;;;3.22;1.00;;;;;;;18.37;63.20;102172.47;5009058;28;20390;-79
2022/06/02 08:39:50;;;;;;;5.80;1.00;;;;;;;18.95;62.88;102175.88;5009220;28;20030;-81
2022/06/02 08:42:49;;;;;;;1.63;0.95;;;;;;;20.53;58.43;102181.63;4992740;28;20747;-81
2022/06/02 08:45:46;;;;;;;4.00;1.02;;;;;;;20.74;57.00;102168.34;5009478;28;20041;-80
2022/06/02 08:48:31;;;;;;;1.90;0.90;;;;;;;20.75;57.07;102193.31;4992719;28;21044;-80
2022/06/02 08:51:20;;;;;;;1.30;0.68;;;;;;;20.10;57.62;102195.63;5009227;28;20026;-81
2022/06/02 08:54:24;;;;;;;2.55;0.70;;;;;;;20.08;57.06;102194.13;5056066;28;20154;-81
2022/06/02 08:57:12;;;;;;;2.97;0.80;;;;;;;19.79;58.54;102203.69;5071583;28;20031;-82
2022/06/02 09:00:02;;;;;;;1.90;0.80;;;;;;;19.69;59.03;102217.34;5070102;28;20052;-81
2022/06/02 09:02:52;;;;;;;1.52;0.80;;;;;;;19.63;58.99;102223.34;5071110;28;20024;-82
2022/06/02 09:05:49;;;;;;;1.23;0.50;;;;;;;19.53;59.72;102218.25;5067850;28;20048;-82
2022/06/02 09:08:43;;;;;;;3.22;1.13;;;;;;;19.62;59.28;102220.84;5069717;28;20028;-82
2022/06/02 09:11:29;;;;;;;1.27;0.63;;;;;;;19.92;59.66;102221.88;5061529;28;20911;-81
2022/06/02 09:14:25;;;;;;;2.53;1.10;;;;;;;20.12;58.17;102225.75;5062661;28;20080;-82
2022/06/02 09:17:14;;;;;;;1.92;0.70;;;;;;;20.68;58.87;102211.19;5068892;28;20031;-82
2022/06/02 09:19:49;;;;;;;1.42;0.70;;;;;;;21.00;56.64;102203.78;5066443;28;20025;-82
2022/06/02 09:22:32;;;;;;;1.33;0.60;;;;;;;21.09;55.37;102208.03;5071292;28;20060;-82
2022/06/02 09:25:24;;;;;;;2.45;1.15;;;;;;;21.25;55.31;102221.28;5071075;28;20020;-82
2022/06/02 09:27:58;;;;;;;1.88;1.00;;;;;;;21.71;54.02;102223.69;5060333;28;20040;-82
2022/06/02 09:30:48;;;;;;;1.95;0.82;;;;;;;22.45;52.45;102224.34;5071312;28;20044;-82
2022/06/02 09:34:04;;;;;;;2.58;0.80;;;;;;;22.27;53.39;102200.66;5070537;28;20496;-82
2022/06/02 09:36:48;;;;;;;1.52;0.60;;;;;;;22.96;52.56;102226.78;5069581;28;20138;-82
2022/06/02 09:39:49;;;;;;;4.13;0.90;;;;;;;23.81;50.50;102195.81;5070689;28;20065;-81
2022/06/02 09:42:34;;;;;;;4.30;0.90;;;;;;;24.75;48.71;102225.50;5070554;28;20035;-81
2022/06/02 09:45:13;;;;;;;3.53;0.70;;;;;;;24.78;48.43;102225.91;5069165;28;20016;-81
2022/06/02 09:48:08;;;;;;;2.22;0.80;;;;;;;24.61;48.94;102230.91;5062622;28;20131;-81
2022/06/02 09:51:07;;;;;;;2.65;0.90;;;;;;;24.04;49.02;102224.28;5050418;28;20017;-80
2022/06/02 09:53:54;;;;;;;2.70;0.65;;;;;;;23.44;50.44;102242.97;5049291;28;20119;-80
2022/06/02 09:56:37;;;;;;;2.67;0.80;;;;;;;23.90;49.47;102239.59;5050159;28;20454;-81
2022/06/02 09:59:35;;;;;;;1.95;0.57;;;;;;;24.70;47.72;102233.41;5049330;28;20420;-80
2022/06/02 10:02:19;;;;;;;2.30;0.70;;;;;;;26.01;44.78;102232.22;5031939;28;20557;-81
2022/06/02 10:05:07;;;;;;;1.98;0.60;;;;;;;25.77;47.04;102244.63;5049937;28;20053;-80
2022/06/02 10:07:44;;;;;;;1.50;0.70;;;;;;;25.64;47.43;102242.84;5049673;28;20098;-80
2022/06/02 10:10:23;;;;;;;1.52;0.70;;;;;;;25.21;46.74;102235.34;5029106;28;20485;-79
2022/06/02 10:13:08;;;;;;;2.08;0.82;;;;;;;24.78;48.14;102230.44;5029520;28;20021;-81
2022/06/02 10:16:10;;;;;;;1.95;0.77;;;;;;;24.89;48.86;102256.84;5047356;28;20016;-80
2022/06/02 10:18:41;;;;;;;1.58;0.80;;;;;;;24.82;48.68;102247.91;5049226;28;20647;-80
2022/06/02 10:21:20;;;;;;;1.92;0.80;;;;;;;24.71;48.95;102245.84;5049876;28;20091;-80
2022/06/02 10:24:03;;;;;;;1.83;0.70;;;;;;;24.58;49.34;102258.31;5049359;28;20017;-80
2022/06/02 10:26:43;;;;;;;2.65;0.77;;;;;;;25.03;47.44;102254.91;5049482;28;20494;-80
2022/06/02 10:29:40;;;;;;;1.98;0.90;;;;;;;25.64;47.11;102250.94;5020295;28;20520;-80
2022/06/02 10:32:17;;;;;;;2.35;1.00;;;;;;;26.79;45.54;102248.00;5049725;28;20500;-79
2022/06/02 10:35:01;;;;;;;3.08;1.10;;;;;;;26.62;44.56;102253.16;5049645;28;20090;-79
2022/06/02 10:37:51;;;;;;;1.92;0.80;;;;;;;25.41;46.72;102248.75;5048202;28;20035;-81
2022/06/02 10:40:41;;;;;;;1.27;0.70;;;;;;;25.79;46.25;102254.19;5046619;28;20396;-80
2022/06/02 10:43:28;;;;;;;2.65;0.70;;;;;;;26.40;45.51;102260.81;5032709;28;20044;-79
2022/06/02 10:46:21;;;;;;;2.83;1.00;;;;;;;26.08;44.62;102257.34;5048086;28;20020;-80
2022/06/02 10:48:53;;;;;;;2.25;0.63;;;;;;;26.41;45.18;102261.66;5053411;28;20069;-80
2022/06/02 10:51:37;;;;;;;3.28;1.05;;;;;;;25.94;46.35;102264.72;5060830;28;20081;-80
2022/06/02 10:54:23;;;;;;;2.42;0.70;;;;;;;26.33;44.78;102264.66;5060198;28;20031;-80
2022/06/02 10:57:07;;;;;;;2.80;1.02;;;;;;;26.02;45.78;102258.22;5068219;28;20086;-80
2022/06/02 11:00:04;;;;;;;2.45;1.02;;;;;;;25.92;47.07;102263.28;5082997;28;20021;-79
2022/06/02 11:02:48;;;;;;;1.67;0.75;;;;;;;26.64;45.10;102256.47;5066739;28;20036;-80
2022/06/02 11:05:36;;;;;;;2.78;0.90;;;;;;;26.49;45.33;102261.38;5060459;28;20082;-80
2022/06/02 11:08:18;;;;;;;3.42;0.88;;;;;;;26.47;45.50;102255.34;5066631;28;20235;-80
2022/06/02 11:11:01;;;;;;;3.05;0.95;;;;;;;26.62;46.84;102264.00;5067305;28;20074;-81
2022/06/02 11:13:56;;;;;;;3.10;0.90;;;;;;;26.54;46.24;102261.53;5068776;28;20084;-80
2022/06/02 11:17:00;;;;;;;2.47;0.60;;;;;;;27.11;44.83;102261.41;5084249;28;20028;-80
2022/06/02 11:20:10;;;;;;;2.55;0.90;;;;;;;28.84;42.87;102264.25;5066834;28;20099;-81
2022/06/02 11:23:21;;;;;;;2.15;0.77;;;;;;;28.89;41.52;102239.06;4986025;28;20034;-80
2022/06/02 11:26:24;;;;;;;2.67;0.88;;;;;;;27.79;43.93;102268.47;4986334;28;20057;-80
2022/06/02 11:29:31;;;;;;;3.45;1.00;;;;;;;27.90;42.96;102267.69;4984888;28;20058;-80
2022/06/02 11:31:59;;;;;;;2.70;0.90;;;;;;;28.09;44.54;102263.03;4953927;28;20412;-81
2022/06/02 11:34:30;;;;;;;2.03;0.95;;;;;;;28.48;42.99;102260.75;4972071;28;20034;-82
2022/06/02 11:37:26;;;;;;;1.50;0.93;;;;;;;28.90;42.67;102255.13;4987545;28;20128;-80
2022/06/02 11:40:10;;;;;;;1.60;0.80;;;;;;;27.87;42.55;102259.19;4971105;28;20033;-83
2022/06/02 11:43:10;;;;;;;4.50;1.00;;;;;;;28.37;40.88;102256.06;4986342;28;20061;-83
2022/06/02 11:45:43;;;;;;;2.33;1.00;;;;;;;28.40;43.35;102197.78;4985724;28;20030;-82
2022/06/02 11:48:27;;;;;;;3.53;0.90;;;;;;;29.31;41.23;102247.00;4988504;28;20081;-82
2022/06/02 11:51:24;;;;;;;1.73;0.73;;;;;;;29.86;41.77;102249.16;4988233;28;20570;-83
2022/06/02 11:54:06;;;;;;;2.72;0.82;;;;;;;30.76;39.43;102247.28;4989012;28;20044;-81
2022/06/02 11:56:56;;;;;;;2.45;1.02;;;;;;;30.45;38.20;102251.47;5023928;28;20248;-81
2022/06/02 11:59:43;;;;;;;2.17;0.70;;;;;;;29.17;40.92;102242.94;5069628;28;20033;-81
2022/06/02 12:03:00;;;;;;;2.00;0.57;;;;;;;29.67;40.76;102245.78;5069730;28;20375;-81
2022/06/02 12:05:50;;;;;;;1.20;0.63;;;;;;;28.58;40.25;102243.84;5061285;28;20032;-81
2022/06/02 12:08:29;;;;;;;1.85;0.65;;;;;;;28.62;42.18;102228.72;5066654;28;20230;-82
2022/06/02 12:11:08;;;;;;;2.85;0.90;;;;;;;29.15;41.92;102243.16;5059242;28;20099;-81
2022/06/02 12:13:40;;;;;;;2.10;0.68;;;;;;;29.16;41.61;102252.13;5067689;28;20372;-81
2022/06/02 12:16:33;;;;;;;3.83;0.80;;;;;;;29.37;40.85;102239.78;5068234;28;20229;-81
2022/06/02 12:19:17;;;;;;;1.77;0.80;;;;;;;29.79;41.07;102251.22;5068587;28;20024;-81
2022/06/02 12:21:52;;;;;;;3.30;1.15;;;;;;;30.87;40.56;102247.44;5060090;28;20380;-81
2022/06/02 12:24:51;;;;;;;2.15;0.73;;;;;;;30.76;40.69;102224.66;5068240;28;20017;-80
2022/06/02 12:27:31;;;;;;;2.15;0.80;;;;;;;30.82;38.90;102244.63;5066482;28;20050;-80
2022/06/02 12:30:23;;;;;;;1.90;0.75;;;;;;;30.79;39.09;102245.13;5065853;28;20152;-81
2022/06/02 12:33:16;;;;;;;1.70;0.60;;;;;;;30.85;38.20;102249.56;5052699;28;20094;-81
2022/06/02 12:36:19;;;;;;;2.03;0.70;;;;;;;31.23;39.64;102250.59;5065763;28;20392;-80
2022/06/02 12:38:59;;;;;;;2.25;0.70;;;;;;;31.36;38.47;102255.69;5068017;28;20025;-81
2022/06/02 12:41:27;;;;;;;;;;;;;;;30.67;38.84;102248.78;5065967;28;20451;-80
2022/06/02 12:43:56;;;;;;;2.58;1.02;;;;;;;30.14;38.57;102244.72;5065215;28;19908;-80
2022/06/02 12:46:57;;;;;;;3.40;0.95;;;;;;;30.29;40.71;102247.72;5068544;28;20029;-80
2022/06/02 12:49:46;;;;;;;1.40;0.70;;;;;;;30.31;39.87;102231.94;5081295;28;20035;-80
2022/06/02 12:52:52;;;;;;;2.13;0.68;;;;;;;30.20;39.91;102242.88;5065579;28;20028;-80
2022/06/02 12:55:29;;;;;;;4.03;0.88;;;;;;;30.15;38.92;102235.47;5065132;28;20032;-80
2022/06/02 12:58:00;;;;;;;2.78;0.90;;;;;;;29.69;40.48;102238.25;5068505;28;20346;-80
2022/06/02 13:00:53;;;;;;;2.30;0.70;;;;;;;29.54;41.09;102233.31;5070950;28;20492;-80